createdAt,value
2022-10-10T00:02:01.931Z,5.70
2022-10-10T00:04:28.509Z,5.60
2022-10-10T00:06:55.057Z,5.60
2022-10-10T00:09:21.599Z,5.50
2022-10-10T00:11:48.363Z,5.40
2022-10-10T00:14:14.903Z,5.40
2022-10-10T00:16:41.427Z,5.30
2022-10-10T00:19:08.019Z,5.20
2022-10-10T00:21:34.563Z,5.20
2022-10-10T00:24:01.107Z,5.10
2022-10-10T00:26:27.638Z,5.10
2022-10-10T00:28:54.182Z,5.00
2022-10-10T00:31:20.716Z,5.00
2022-10-10T00:33:47.326Z,5.00
2022-10-10T00:36:13.855Z,5.10
2022-10-10T00:38:40.401Z,5.10
2022-10-10T00:41:06.926Z,5.10
2022-10-10T00:43:33.669Z,5.00
2022-10-10T00:46:00.275Z,5.00
2022-10-10T00:48:31.338Z,4.90
2022-10-10T00:51:01.715Z,4.90
2022-10-10T00:53:29.778Z,4.90
2022-10-10T00:55:56.337Z,5.00
2022-10-10T00:58:22.883Z,4.90
2022-10-10T01:00:49.479Z,4.90
2022-10-10T01:03:16.043Z,4.80
2022-10-10T01:05:42.665Z,4.80
2022-10-10T01:08:09.213Z,4.70
2022-10-10T01:10:36.121Z,4.70
2022-10-10T01:13:32.052Z,4.60
2022-10-10T01:16:04.024Z,4.70
2022-10-10T01:18:33.663Z,4.70
2022-10-10T01:21:03.324Z,4.70
2022-10-10T01:23:33.137Z,4.70
2022-10-10T01:26:13.673Z,4.80
2022-10-10T01:28:59.040Z,4.80
2022-10-10T01:31:25.620Z,4.80
2022-10-10T01:34:02.404Z,4.90
2022-10-10T01:36:38.977Z,5.00
2022-10-10T01:39:18.739Z,4.90
2022-10-10T01:41:51.069Z,4.90
2022-10-10T01:44:20.455Z,4.90
2022-10-10T01:46:47.293Z,4.90
2022-10-10T01:49:13.841Z,4.90
2022-10-10T01:51:58.752Z,4.90
2022-10-10T01:54:34.625Z,4.90
2022-10-10T01:57:04.344Z,4.80
2022-10-10T01:59:30.884Z,4.80
2022-10-10T02:02:06.582Z,4.80
2022-10-10T02:04:52.028Z,4.70
2022-10-10T02:07:32.229Z,4.70
2022-10-10T02:09:59.217Z,4.70
2022-10-10T02:12:25.820Z,4.60
2022-10-10T02:14:53.115Z,4.60
2022-10-10T02:17:19.653Z,4.60
2022-10-10T02:19:46.918Z,4.70
2022-10-10T02:22:13.565Z,4.70
2022-10-10T02:24:40.115Z,4.60
2022-10-10T02:27:08.585Z,4.60
2022-10-10T02:29:35.691Z,4.60
2022-10-10T02:32:08.243Z,4.50
2022-10-10T02:34:38.806Z,4.50
2022-10-10T02:37:06.721Z,4.50
2022-10-10T02:39:34.515Z,4.50
2022-10-10T02:42:01.176Z,4.40
2022-10-10T02:44:27.724Z,4.50
2022-10-10T02:46:54.261Z,4.40
2022-10-10T02:49:24.709Z,4.40
2022-10-10T02:51:51.248Z,4.40
2022-10-10T02:54:17.796Z,4.40
2022-10-10T02:56:44.330Z,4.40
2022-10-10T02:59:10.873Z,4.50
2022-10-10T03:01:37.562Z,4.50
2022-10-10T03:04:04.099Z,4.40
2022-10-10T03:06:30.627Z,4.40
2022-10-10T03:08:57.207Z,4.40
2022-10-10T03:11:23.732Z,4.40
2022-10-10T03:13:50.271Z,4.40
2022-10-10T03:16:16.799Z,4.30
2022-10-10T03:18:43.353Z,4.20
2022-10-10T03:21:09.885Z,4.10
2022-10-10T03:23:36.441Z,4.00
2022-10-10T03:26:03.224Z,3.90
2022-10-10T03:28:29.803Z,4.00
2022-10-10T03:30:56.387Z,4.00
2022-10-10T03:33:23.063Z,4.00
2022-10-10T03:35:49.603Z,3.90
2022-10-10T03:38:16.235Z,3.90
2022-10-10T03:40:43.181Z,3.90
2022-10-10T03:43:10.225Z,3.80
2022-10-10T03:45:36.769Z,3.80
2022-10-10T03:48:03.669Z,3.70
2022-10-10T03:50:30.367Z,3.70
2022-10-10T03:52:56.939Z,3.70
2022-10-10T03:55:23.529Z,3.70
2022-10-10T03:57:50.082Z,3.70
2022-10-10T04:00:16.643Z,3.80
2022-10-10T04:02:43.226Z,3.80
2022-10-10T04:05:09.783Z,3.80
2022-10-10T04:07:36.447Z,3.70
2022-10-10T04:10:03.072Z,3.70
2022-10-10T04:12:29.599Z,3.60
2022-10-10T04:14:56.136Z,3.60
2022-10-10T04:17:22.682Z,3.60
2022-10-10T04:19:49.231Z,3.60
2022-10-10T04:22:16.538Z,3.70
2022-10-10T04:24:43.076Z,3.80
2022-10-10T04:27:09.868Z,3.90
2022-10-10T04:29:36.421Z,4.00
2022-10-10T04:32:02.955Z,4.00
2022-10-10T04:34:30.044Z,3.90
2022-10-10T04:36:56.566Z,3.90
2022-10-10T04:39:23.114Z,3.70
2022-10-10T04:41:50.158Z,3.60
2022-10-10T04:44:17.264Z,3.60
2022-10-10T04:46:43.833Z,3.60
2022-10-10T04:49:10.372Z,3.70
2022-10-10T04:51:37.557Z,3.70
2022-10-10T04:54:04.471Z,3.70
2022-10-10T04:56:31.004Z,3.70
2022-10-10T04:58:57.556Z,3.70
2022-10-10T05:01:24.128Z,3.80
2022-10-10T05:03:50.710Z,3.80
2022-10-10T05:06:17.246Z,3.80
2022-10-10T05:08:43.817Z,3.80
2022-10-10T05:11:10.380Z,3.90
2022-10-10T05:13:36.929Z,4.00
2022-10-10T05:16:03.461Z,3.90
2022-10-10T05:18:30.008Z,3.80
2022-10-10T05:21:01.060Z,3.70
2022-10-10T05:23:29.920Z,3.80
2022-10-10T05:25:56.456Z,3.80
2022-10-10T05:28:23.033Z,3.90
2022-10-10T05:30:50.353Z,3.90
2022-10-10T05:33:17.045Z,3.90
2022-10-10T05:35:43.587Z,4.00
2022-10-10T05:38:10.225Z,4.00
2022-10-10T05:40:39.194Z,4.10
2022-10-10T05:43:05.729Z,4.20
2022-10-10T05:45:32.273Z,4.20
2022-10-10T05:47:58.814Z,4.20
2022-10-10T05:50:27.500Z,4.30
2022-10-10T05:52:54.381Z,4.20
2022-10-10T05:55:21.106Z,4.30
2022-10-10T05:57:47.649Z,4.30
2022-10-10T06:00:14.264Z,4.30
2022-10-10T06:02:40.865Z,4.30
2022-10-10T06:05:07.669Z,4.30
2022-10-10T06:07:52.290Z,4.30
2022-10-10T06:10:20.719Z,4.30
2022-10-10T06:12:47.297Z,4.40
2022-10-10T06:15:13.849Z,4.40
2022-10-10T06:17:40.381Z,4.50
2022-10-10T06:20:07.362Z,4.80
2022-10-10T06:22:33.892Z,5.00
2022-10-10T06:25:00.442Z,5.40
2022-10-10T06:27:27.038Z,6.30
2022-10-10T06:29:53.580Z,7.30
2022-10-10T06:32:20.147Z,7.90
2022-10-10T06:34:47.022Z,8.40
2022-10-10T06:37:13.579Z,8.90
2022-10-10T06:39:40.175Z,8.80
2022-10-10T06:42:06.756Z,8.80
2022-10-10T06:44:33.568Z,9.20
2022-10-10T06:47:00.105Z,9.80
2022-10-10T06:49:26.651Z,10.20
2022-10-10T06:51:53.184Z,11.00
2022-10-10T06:54:19.737Z,11.30
2022-10-10T06:56:46.265Z,11.70
2022-10-10T06:59:12.810Z,12.10
2022-10-10T07:01:39.365Z,12.50
2022-10-10T07:04:05.939Z,12.70
2022-10-10T07:06:34.836Z,13.00
2022-10-10T07:09:01.777Z,13.30
2022-10-10T07:11:29.495Z,13.50
2022-10-10T07:13:56.039Z,13.60
2022-10-10T07:16:23.189Z,13.70
2022-10-10T07:18:49.740Z,14.10
2022-10-10T07:21:16.308Z,13.70
2022-10-10T07:23:42.876Z,13.90
2022-10-10T07:26:13.516Z,14.20
2022-10-10T07:28:40.182Z,14.80
2022-10-10T07:31:09.933Z,15.10
2022-10-10T07:33:37.803Z,15.00
2022-10-10T07:36:04.565Z,15.00
2022-10-10T07:38:31.107Z,15.00
2022-10-10T07:40:57.684Z,15.10
2022-10-10T07:43:24.276Z,15.40
2022-10-10T07:45:50.875Z,15.40
2022-10-10T07:48:17.599Z,15.00
2022-10-10T07:50:44.184Z,15.20
2022-10-10T07:53:10.929Z,15.70
2022-10-10T07:55:43.689Z,15.90
2022-10-10T07:58:10.890Z,16.00
2022-10-10T08:00:38.523Z,16.00
2022-10-10T08:03:09.675Z,15.90
2022-10-10T08:05:41.727Z,15.80
2022-10-10T08:08:08.558Z,15.50
2022-10-10T08:10:35.157Z,15.20
2022-10-10T08:13:01.693Z,14.70
2022-10-10T08:15:31.548Z,14.00
2022-10-10T08:18:00.460Z,13.40
2022-10-10T08:20:27.052Z,13.10
2022-10-10T08:22:53.938Z,12.90
2022-10-10T08:25:20.597Z,12.70
2022-10-10T08:27:47.123Z,12.80
2022-10-10T08:30:13.727Z,12.70
2022-10-10T08:32:40.260Z,12.70
2022-10-10T08:35:06.995Z,12.90
2022-10-10T08:37:37.213Z,12.90
2022-10-10T08:40:04.376Z,12.90
2022-10-10T08:42:36.487Z,13.00
2022-10-10T08:45:04.273Z,13.20
2022-10-10T08:47:36.928Z,13.00
2022-10-10T08:50:06.235Z,12.70
2022-10-10T08:52:55.769Z,12.70
2022-10-10T08:55:23.558Z,12.90
2022-10-10T08:57:50.059Z,13.00
2022-10-10T09:00:17.945Z,13.10
2022-10-10T09:02:55.018Z,13.20
2022-10-10T09:05:43.493Z,13.30
2022-10-10T09:08:28.879Z,13.30
2022-10-10T09:10:56.934Z,13.40
2022-10-10T09:13:42.546Z,13.40
2022-10-10T09:16:18.121Z,13.40
2022-10-10T09:18:44.645Z,13.40
2022-10-10T09:21:18.629Z,13.50
2022-10-10T09:23:47.262Z,13.50
2022-10-10T09:26:14.432Z,13.70
2022-10-10T09:28:45.115Z,14.00
2022-10-10T09:31:14.203Z,14.00
2022-10-10T09:33:52.050Z,14.20
2022-10-10T09:36:19.503Z,14.40
2022-10-10T09:38:50.313Z,14.40
2022-10-10T09:41:34.989Z,14.50
2022-10-10T09:44:04.217Z,14.30
2022-10-10T09:46:30.751Z,14.30
2022-10-10T09:48:57.296Z,14.50
2022-10-10T09:51:23.823Z,14.70
2022-10-10T09:53:50.512Z,14.90
2022-10-10T09:56:24.692Z,14.90
2022-10-10T09:58:52.031Z,15.00
2022-10-10T10:01:21.557Z,15.10
2022-10-10T10:04:23.427Z,14.90
2022-10-10T10:06:53.341Z,14.90
2022-10-10T10:09:20.802Z,14.90
2022-10-10T10:11:47.936Z,15.10
2022-10-10T10:14:22.376Z,15.10
2022-10-10T10:16:48.910Z,15.20
2022-10-10T10:19:29.115Z,15.30
2022-10-10T10:21:55.712Z,15.50
2022-10-10T10:24:24.196Z,15.50
2022-10-10T10:26:50.757Z,15.60
2022-10-10T10:29:33.305Z,15.70
2022-10-10T10:31:59.811Z,15.80
2022-10-10T10:34:39.543Z,15.70
2022-10-10T10:37:18.948Z,15.90
2022-10-10T10:40:04.411Z,16.10
2022-10-10T10:42:35.668Z,16.30
2022-10-10T10:45:02.247Z,16.30
2022-10-10T10:47:34.961Z,16.40
2022-10-10T10:50:20.230Z,16.50
2022-10-10T10:53:00.354Z,16.70
2022-10-10T10:55:32.947Z,16.80
2022-10-10T10:59:05.474Z,16.80
2022-10-10T11:01:28.002Z,16.60
2022-10-10T11:05:16.183Z,16.60
2022-10-10T11:07:16.815Z,16.50
2022-10-10T11:09:50.008Z,16.40
2022-10-10T11:12:35.990Z,16.50
2022-10-10T11:15:11.715Z,16.60
2022-10-10T11:17:42.792Z,16.80
2022-10-10T11:20:21.514Z,16.80
2022-10-10T11:23:17.450Z,16.80
2022-10-10T11:25:46.841Z,16.90
2022-10-10T11:28:14.926Z,17.00
2022-10-10T11:30:44.301Z,17.20
2022-10-10T11:33:10.823Z,17.40
2022-10-10T11:35:43.333Z,17.50
2022-10-10T11:38:15.917Z,17.50
2022-10-10T11:40:44.707Z,17.60
2022-10-10T11:43:29.577Z,17.70
2022-10-10T11:46:08.828Z,17.80
2022-10-10T11:48:37.403Z,17.90
2022-10-10T11:51:05.902Z,18.00
2022-10-10T11:53:34.941Z,18.00
2022-10-10T11:56:18.379Z,18.20
2022-10-10T11:58:46.235Z,18.30
2022-10-10T12:01:32.632Z,18.30
2022-10-10T12:03:59.233Z,18.20
2022-10-10T12:06:27.883Z,18.20
2022-10-10T12:09:02.502Z,18.40
2022-10-10T12:11:30.941Z,18.40
2022-10-10T12:13:58.477Z,18.40
2022-10-10T12:16:30.402Z,18.60
2022-10-10T12:19:01.516Z,18.70
2022-10-10T12:21:28.456Z,18.70
2022-10-10T12:24:06.124Z,18.70
2022-10-10T12:27:11.068Z,18.70
2022-10-10T12:29:47.760Z,18.80
2022-10-10T12:32:19.629Z,18.80
2022-10-10T12:34:49.045Z,18.90
2022-10-10T12:37:28.312Z,18.90
2022-10-10T12:40:07.281Z,18.80
2022-10-10T12:42:46.043Z,18.60
2022-10-10T12:45:34.001Z,18.50
2022-10-10T12:48:05.348Z,18.50
2022-10-10T12:50:39.728Z,18.50
2022-10-10T12:53:07.048Z,18.60
2022-10-10T12:55:40.679Z,18.70
2022-10-10T12:58:07.890Z,18.70
2022-10-10T13:00:38.721Z,18.60
2022-10-10T13:03:09.872Z,18.40
2022-10-10T13:05:36.792Z,18.50
2022-10-10T13:08:05.067Z,18.50
2022-10-10T13:10:31.715Z,18.40
2022-10-10T13:12:59.281Z,18.50
2022-10-10T13:15:25.855Z,18.60
2022-10-10T13:17:52.382Z,18.70
2022-10-10T13:20:31.864Z,18.90
2022-10-10T13:22:58.448Z,19.00
2022-10-10T13:25:25.076Z,19.00
2022-10-10T13:27:51.615Z,19.30
2022-10-10T13:30:18.921Z,19.40
2022-10-10T13:32:45.443Z,19.50
2022-10-10T13:35:16.258Z,19.60
2022-10-10T13:37:42.833Z,19.70
2022-10-10T13:40:15.631Z,19.70
2022-10-10T13:42:42.194Z,19.70
2022-10-10T13:45:30.103Z,19.60
2022-10-10T13:47:57.198Z,19.70
2022-10-10T13:50:25.760Z,19.70
2022-10-10T13:53:14.214Z,19.70
2022-10-10T13:55:40.748Z,19.80
2022-10-10T13:58:08.571Z,19.80
2022-10-10T14:00:35.313Z,19.80
2022-10-10T14:03:01.852Z,19.70
2022-10-10T14:05:29.518Z,19.70
2022-10-10T14:07:56.046Z,19.70
2022-10-10T14:10:23.670Z,19.60
2022-10-10T14:12:54.546Z,19.40
2022-10-10T14:15:31.803Z,19.30
2022-10-10T14:17:58.413Z,19.30
2022-10-10T14:20:24.971Z,19.30
2022-10-10T14:22:51.513Z,19.30
2022-10-10T14:25:18.070Z,19.20
2022-10-10T14:27:44.616Z,19.20
2022-10-10T14:30:13.706Z,19.20
2022-10-10T14:32:40.249Z,19.10
2022-10-10T14:35:06.876Z,19.00
2022-10-10T14:37:34.120Z,18.90
2022-10-10T14:40:00.743Z,18.90
2022-10-10T14:42:27.279Z,18.70
2022-10-10T14:44:53.830Z,18.60
2022-10-10T14:47:21.146Z,18.40
2022-10-10T14:49:48.016Z,18.40
2022-10-10T14:52:14.821Z,18.40
2022-10-10T14:54:41.882Z,18.50
2022-10-10T14:57:10.146Z,18.50
2022-10-10T14:59:46.374Z,18.60
2022-10-10T15:02:17.013Z,18.70
2022-10-10T15:04:43.568Z,18.80
2022-10-10T15:07:14.761Z,18.90
2022-10-10T15:10:17.611Z,18.90
2022-10-10T15:12:31.963Z,18.90
2022-10-10T15:14:58.575Z,19.00
2022-10-10T15:17:26.979Z,18.90
2022-10-10T15:19:53.543Z,18.80
2022-10-10T15:22:20.126Z,18.70
2022-10-10T15:24:46.686Z,18.50
2022-10-10T15:27:13.364Z,18.40
2022-10-10T15:29:39.911Z,18.30
2022-10-10T15:32:06.572Z,18.10
2022-10-10T15:34:33.170Z,17.90
2022-10-10T15:36:59.699Z,17.80
2022-10-10T15:39:26.313Z,17.60
2022-10-10T15:41:52.836Z,17.50
2022-10-10T15:44:19.386Z,17.40
2022-10-10T15:46:46.119Z,17.30
2022-10-10T15:49:12.927Z,17.20
2022-10-10T15:51:42.498Z,17.00
2022-10-10T15:54:09.045Z,17.00
2022-10-10T15:56:35.632Z,16.90
2022-10-10T15:59:02.197Z,16.80
2022-10-10T16:01:28.981Z,16.80
2022-10-10T16:03:55.789Z,16.70
2022-10-10T16:06:22.481Z,16.70
2022-10-10T16:08:52.737Z,16.60
2022-10-10T16:11:30.761Z,16.60
2022-10-10T16:13:57.384Z,16.60
2022-10-10T16:16:24.637Z,16.60
2022-10-10T16:18:51.262Z,16.60
2022-10-10T16:21:19.427Z,16.50
2022-10-10T16:23:46.381Z,16.50
2022-10-10T16:26:13.919Z,16.40
2022-10-10T16:28:43.266Z,16.30
2022-10-10T16:31:10.674Z,16.30
2022-10-10T16:33:37.544Z,16.20
2022-10-10T16:36:07.468Z,16.10
2022-10-10T16:38:34.025Z,16.00
2022-10-10T16:41:04.675Z,16.00
2022-10-10T16:43:31.666Z,15.90
2022-10-10T16:46:02.370Z,15.80
2022-10-10T16:48:32.117Z,15.80
2022-10-10T16:51:03.448Z,15.70
2022-10-10T16:53:30.229Z,15.60
2022-10-10T16:56:00.213Z,15.50
2022-10-10T16:58:27.053Z,15.50
2022-10-10T17:00:53.771Z,15.40
2022-10-10T17:03:20.441Z,15.30
2022-10-10T17:05:47.088Z,15.20
2022-10-10T17:08:13.843Z,15.10
2022-10-10T17:10:40.402Z,15.00
2022-10-10T17:13:06.936Z,14.80
2022-10-10T17:15:33.531Z,14.80
2022-10-10T17:18:00.055Z,14.70
2022-10-10T17:20:26.644Z,14.60
2022-10-10T17:22:53.209Z,14.60
2022-10-10T17:25:19.772Z,14.50
2022-10-10T17:27:46.304Z,14.50
2022-10-10T17:30:13.811Z,14.50
2022-10-10T17:32:41.624Z,14.50
2022-10-10T17:35:08.855Z,14.50
2022-10-10T17:37:35.415Z,14.50
2022-10-10T17:40:02.270Z,14.50
2022-10-10T17:42:28.928Z,14.50
2022-10-10T17:44:59.198Z,14.50
2022-10-10T17:47:26.203Z,14.50
2022-10-10T17:49:52.978Z,14.60
2022-10-10T17:52:21.340Z,14.50
2022-10-10T17:54:48.161Z,14.50
2022-10-10T17:57:14.693Z,14.50
2022-10-10T17:59:41.296Z,14.50
2022-10-10T18:02:09.647Z,14.50
2022-10-10T18:04:36.221Z,14.60
2022-10-10T18:07:02.753Z,14.60
2022-10-10T18:09:29.309Z,14.60
2022-10-10T18:11:56.132Z,14.60
2022-10-10T18:14:23.563Z,14.60
2022-10-10T18:16:50.097Z,14.60
2022-10-10T18:19:17.541Z,14.60
2022-10-10T18:21:44.131Z,14.60
2022-10-10T18:24:10.693Z,14.60
2022-10-10T18:26:37.345Z,14.60
2022-10-10T18:29:03.901Z,14.60
2022-10-10T18:31:31.443Z,14.60
2022-10-10T18:33:58.070Z,14.70
2022-10-10T18:36:24.981Z,14.70
2022-10-10T18:38:51.609Z,14.60
2022-10-10T18:41:19.061Z,14.70
2022-10-10T18:43:45.759Z,14.60
2022-10-10T18:46:13.297Z,14.70
2022-10-10T18:48:39.841Z,14.80
2022-10-10T18:51:07.457Z,14.90
2022-10-10T18:53:37.776Z,14.90
2022-10-10T18:56:04.894Z,15.00
2022-10-10T18:58:31.478Z,15.10
2022-10-10T19:00:58.830Z,15.10
2022-10-10T19:03:25.466Z,15.20
2022-10-10T19:05:52.009Z,15.20
2022-10-10T19:08:18.549Z,15.20
2022-10-10T19:10:45.460Z,15.20
2022-10-10T19:13:12.119Z,15.10
2022-10-10T19:15:38.841Z,15.00
2022-10-10T19:18:05.473Z,15.00
2022-10-10T19:20:32.467Z,15.00
2022-10-10T19:22:59.240Z,14.90
2022-10-10T19:25:27.477Z,14.90
2022-10-10T19:27:54.060Z,14.80
2022-10-10T19:30:20.602Z,14.80
2022-10-10T19:35:18.583Z,14.60
2022-10-10T19:37:45.115Z,14.60
2022-10-10T19:40:11.705Z,14.60
2022-10-10T19:42:38.245Z,14.60
2022-10-10T19:45:04.878Z,14.50
2022-10-10T19:47:31.404Z,14.50
2022-10-10T19:49:57.939Z,14.50
2022-10-10T19:52:24.474Z,14.40
2022-10-10T19:54:52.468Z,14.40
2022-10-10T19:57:18.992Z,14.30
2022-10-10T19:59:45.540Z,14.30
2022-10-10T20:02:12.068Z,14.20
2022-10-10T20:04:38.605Z,14.00
2022-10-10T20:07:05.176Z,14.00
2022-10-10T20:09:32.067Z,13.90
2022-10-10T20:11:58.697Z,13.90
2022-10-10T20:14:25.245Z,13.80
2022-10-10T20:16:51.893Z,13.80
2022-10-10T20:19:18.443Z,13.70
2022-10-10T20:21:44.984Z,13.60
2022-10-10T20:24:11.748Z,13.50
2022-10-10T20:26:38.455Z,13.40
2022-10-10T20:29:05.277Z,13.30
2022-10-10T20:31:32.233Z,13.30
2022-10-10T20:34:00.580Z,13.20
2022-10-10T20:36:27.353Z,13.20
2022-10-10T20:38:57.631Z,13.30
2022-10-10T20:41:24.753Z,13.20
2022-10-10T20:43:54.635Z,13.30
2022-10-10T20:46:21.181Z,13.40
2022-10-10T20:48:47.756Z,13.40
2022-10-10T20:51:14.388Z,13.40
2022-10-10T20:53:44.040Z,13.40
2022-10-10T20:56:11.120Z,13.40
2022-10-10T20:58:37.759Z,13.50
2022-10-10T21:01:08.368Z,13.60
2022-10-10T21:03:34.995Z,13.60
2022-10-10T21:06:05.885Z,13.60
2022-10-10T21:08:32.558Z,13.60
2022-10-10T21:11:00.456Z,13.60
2022-10-10T21:13:27.181Z,13.60
2022-10-10T21:15:53.738Z,13.60
2022-10-10T21:18:20.655Z,13.60
2022-10-10T21:20:47.218Z,13.60
2022-10-10T21:23:13.753Z,13.50
2022-10-10T21:25:40.411Z,13.40
2022-10-10T21:28:07.016Z,13.10
2022-10-10T21:30:34.629Z,12.90
2022-10-10T21:33:01.165Z,12.80
2022-10-10T21:35:27.708Z,12.60
2022-10-10T21:37:54.245Z,12.60
2022-10-10T21:40:20.808Z,12.50
2022-10-10T21:42:47.340Z,12.50
2022-10-10T21:45:14.165Z,12.40
2022-10-10T21:47:41.382Z,12.40
2022-10-10T21:50:08.157Z,12.30
2022-10-10T21:52:34.697Z,12.30
2022-10-10T21:55:01.502Z,12.20
2022-10-10T21:57:28.046Z,12.20
2022-10-10T21:59:54.593Z,12.10
2022-10-10T22:02:21.213Z,12.00
2022-10-10T22:04:51.289Z,12.00
2022-10-10T22:07:17.905Z,11.90
2022-10-10T22:09:44.457Z,11.80
2022-10-10T22:12:10.984Z,11.70
2022-10-10T22:14:37.527Z,11.70
2022-10-10T22:17:04.063Z,11.60
2022-10-10T22:19:30.692Z,11.50
2022-10-10T22:21:57.219Z,11.40
2022-10-10T22:24:24.024Z,11.30
2022-10-10T22:26:50.570Z,11.20
2022-10-10T22:29:17.149Z,11.20
2022-10-10T22:31:43.717Z,11.10
2022-10-10T22:34:10.241Z,11.00
2022-10-10T22:36:36.801Z,10.80
2022-10-10T22:39:03.560Z,10.80
2022-10-10T22:41:30.139Z,10.70
2022-10-10T22:43:56.685Z,10.60
2022-10-10T22:46:25.125Z,10.50
2022-10-10T22:48:51.651Z,10.40
2022-10-10T22:51:18.199Z,10.40
2022-10-10T22:53:44.988Z,10.30
2022-10-10T22:56:11.969Z,10.30
2022-10-10T22:58:38.503Z,10.20
2022-10-10T23:01:08.715Z,10.20
2022-10-10T23:03:35.329Z,10.20
2022-10-10T23:06:02.529Z,10.10
2022-10-10T23:08:29.344Z,10.00
2022-10-10T23:10:56.032Z,10.10
2022-10-10T23:13:22.648Z,10.00
2022-10-10T23:15:49.201Z,10.00
2022-10-10T23:18:15.751Z,9.80
2022-10-10T23:20:42.303Z,9.70
2022-10-10T23:23:08.883Z,9.70
2022-10-10T23:25:39.511Z,9.60
2022-10-10T23:28:06.159Z,9.50
2022-10-10T23:30:32.780Z,9.50
2022-10-10T23:32:59.314Z,9.40
2022-10-10T23:35:25.872Z,9.40
2022-10-10T23:37:52.396Z,9.40
2022-10-10T23:40:18.951Z,9.40
2022-10-10T23:42:45.523Z,9.30
2022-10-10T23:45:12.074Z,9.30
2022-10-10T23:47:38.612Z,9.30
2022-10-10T23:50:05.476Z,9.20
2022-10-10T23:52:32.023Z,9.10
2022-10-10T23:54:58.569Z,9.00
2022-10-10T23:57:25.129Z,8.90
2022-10-10T23:59:51.668Z,8.80
